createdAt,value
2018-03-03T00:00:29.846Z,49.20
2018-03-03T00:02:58.377Z,49.20
2018-03-03T00:05:26.636Z,49.20
2018-03-03T00:07:53.742Z,49.20
2018-03-03T00:10:20.840Z,49.20
2018-03-03T00:12:49.760Z,49.20
2018-03-03T00:15:16.908Z,49.20
2018-03-03T00:17:44.778Z,49.20
2018-03-03T00:20:12.639Z,49.20
2018-03-03T00:22:40.900Z,49.20
2018-03-03T00:25:09.118Z,49.20
2018-03-03T00:27:37.000Z,49.20
2018-03-03T00:30:05.605Z,49.70
2018-03-03T00:32:33.106Z,49.20
2018-03-03T00:35:01.321Z,49.20
2018-03-03T00:39:57.569Z,49.20
2018-03-03T00:42:24.645Z,49.20
2018-03-03T00:44:51.721Z,49.20
2018-03-03T00:47:18.824Z,49.20
2018-03-03T00:49:47.042Z,49.10
2018-03-03T00:52:14.117Z,49.20
2018-03-03T00:54:41.233Z,49.20
2018-03-03T00:57:09.088Z,49.20
2018-03-03T00:59:36.943Z,49.20
2018-03-03T01:02:05.158Z,49.20
2018-03-03T01:04:32.253Z,49.10
2018-03-03T01:07:00.118Z,49.60
2018-03-03T01:09:27.976Z,49.70
2018-03-03T01:11:55.055Z,49.20
2018-03-03T01:14:22.907Z,49.20
2018-03-03T01:16:51.126Z,49.20
2018-03-03T01:19:19.342Z,49.20
2018-03-03T01:21:47.554Z,49.10
2018-03-03T01:24:14.625Z,49.20
2018-03-03T01:26:41.714Z,49.20
2018-03-03T01:29:09.185Z,49.20
2018-03-03T01:31:37.031Z,49.10
2018-03-03T01:34:05.246Z,49.10
2018-03-03T01:36:32.348Z,49.10
2018-03-03T01:38:59.425Z,49.10
2018-03-03T01:41:26.932Z,49.00
2018-03-03T01:43:54.052Z,49.10
2018-03-03T01:46:21.149Z,49.10
2018-03-03T01:48:49.766Z,49.60
2018-03-03T01:51:16.897Z,49.10
2018-03-03T01:53:45.238Z,49.10
2018-03-03T01:58:41.062Z,49.10
2018-03-03T02:01:09.291Z,49.10
2018-03-03T02:03:37.530Z,49.20
2018-03-03T02:06:05.756Z,49.20
2018-03-03T02:08:34.012Z,49.10
2018-03-03T02:11:01.875Z,49.20
2018-03-03T02:13:28.986Z,49.10
2018-03-03T02:15:56.844Z,49.20
2018-03-03T02:18:24.998Z,49.20
2018-03-03T02:20:52.864Z,49.10
2018-03-03T02:23:20.748Z,49.00
2018-03-03T02:25:47.825Z,49.00
2018-03-03T02:28:14.951Z,49.00
2018-03-03T02:30:42.831Z,49.20
2018-03-03T02:33:10.738Z,49.00
2018-03-03T02:35:37.825Z,49.10
2018-03-03T02:38:04.948Z,49.10
2018-03-03T02:40:32.815Z,49.20
2018-03-03T02:42:59.937Z,49.20
2018-03-03T02:45:27.839Z,50.30
2018-03-03T02:47:55.701Z,49.10
2018-03-03T02:50:23.931Z,49.20
2018-03-03T02:52:51.812Z,49.00
2018-03-03T02:55:18.895Z,49.00
2018-03-03T03:00:14.845Z,49.10
2018-03-03T03:02:41.965Z,49.00
2018-03-03T03:05:09.808Z,49.10
2018-03-03T03:07:36.906Z,49.10
2018-03-03T03:12:32.740Z,49.10
2018-03-03T03:14:59.820Z,49.10
2018-03-03T03:17:27.712Z,49.10
2018-03-03T03:19:54.794Z,49.10
2018-03-03T03:22:21.888Z,49.10
2018-03-03T03:24:48.975Z,49.10
2018-03-03T03:27:17.199Z,49.10
2018-03-03T03:29:45.437Z,49.10
2018-03-03T03:32:13.649Z,49.10
2018-03-03T03:37:09.907Z,49.10
2018-03-03T03:42:06.579Z,49.10
2018-03-03T03:44:34.798Z,49.10
2018-03-03T03:47:03.009Z,49.10
2018-03-03T03:49:30.862Z,49.10
2018-03-03T03:51:57.934Z,49.10
2018-03-03T03:54:25.012Z,49.10
2018-03-03T03:56:52.868Z,49.20
2018-03-03T03:59:21.455Z,49.10
2018-03-03T04:01:48.923Z,49.10
2018-03-03T04:06:45.152Z,49.00
2018-03-03T04:09:13.367Z,49.10
2018-03-03T04:14:09.575Z,49.10
2018-03-03T04:16:37.804Z,49.10
2018-03-03T04:19:04.901Z,49.10
2018-03-03T04:21:31.990Z,49.10
2018-03-03T04:23:59.495Z,49.10
2018-03-03T04:26:27.728Z,49.10
2018-03-03T04:28:55.949Z,49.10
2018-03-03T04:31:23.803Z,49.10
2018-03-03T04:33:50.901Z,49.20
2018-03-03T04:36:18.009Z,49.10
2018-03-03T04:38:45.486Z,49.20
2018-03-03T04:41:12.589Z,49.10
2018-03-03T04:43:39.684Z,49.10
2018-03-03T04:46:07.912Z,49.20
2018-03-03T04:48:35.023Z,49.10
2018-03-03T04:51:03.271Z,49.10
2018-03-03T04:53:31.512Z,49.10
2018-03-03T04:55:59.737Z,49.00
2018-03-03T05:01:38.707Z,49.10
2018-03-03T05:04:09.704Z,49.00
2018-03-03T05:06:38.309Z,49.60
2018-03-03T05:09:05.788Z,49.00
2018-03-03T05:11:34.023Z,49.00
2018-03-03T05:14:12.961Z,49.00
2018-03-03T05:19:50.758Z,49.00
2018-03-03T05:22:24.588Z,49.00
2018-03-03T05:24:58.738Z,49.00
2018-03-03T05:30:40.665Z,49.00
2018-03-03T05:33:14.448Z,49.00
2018-03-03T05:35:57.213Z,49.20
2018-03-03T05:38:31.431Z,49.10
2018-03-03T05:44:11.217Z,49.50
2018-03-03T05:46:39.075Z,49.10
2018-03-03T05:49:24.654Z,49.20
2018-03-03T05:54:42.877Z,49.00
2018-03-03T06:00:25.485Z,49.60
2018-03-03T06:03:08.793Z,49.20
2018-03-03T06:05:42.627Z,49.10
2018-03-03T06:08:12.623Z,49.00
2018-03-03T06:15:38.296Z,50.00
2018-03-03T06:18:05.802Z,49.10
2018-03-03T06:20:34.036Z,49.00
2018-03-03T06:23:01.152Z,49.20
2018-03-03T06:25:29.007Z,49.10
2018-03-03T06:27:56.120Z,49.10
2018-03-03T06:32:51.961Z,49.10
2018-03-03T06:37:47.821Z,49.10
2018-03-03T06:42:45.185Z,49.10
2018-03-03T06:45:13.030Z,49.10
2018-03-03T06:47:41.264Z,49.10
2018-03-03T06:50:09.165Z,49.10
2018-03-03T06:52:36.288Z,49.10
2018-03-03T06:55:03.375Z,49.10
2018-03-03T06:57:31.217Z,49.60
2018-03-03T06:59:59.071Z,49.10
2018-03-03T07:02:26.932Z,49.00
2018-03-03T07:04:54.015Z,49.00
2018-03-03T07:07:21.089Z,49.10
2018-03-03T07:09:49.319Z,49.10
2018-03-03T07:12:17.169Z,49.00
2018-03-03T07:17:47.473Z,49.00
2018-03-03T07:20:14.946Z,49.00
2018-03-03T07:22:43.181Z,49.10
2018-03-03T07:25:11.044Z,49.10
2018-03-03T07:27:38.924Z,49.10
2018-03-03T07:30:07.142Z,49.10
2018-03-03T07:32:34.990Z,49.10
2018-03-03T07:35:02.086Z,49.10
2018-03-03T07:37:29.170Z,49.10
2018-03-03T07:39:57.032Z,49.10
2018-03-03T07:42:25.288Z,49.10
2018-03-03T07:44:53.152Z,49.10
2018-03-03T07:47:21.367Z,49.10
2018-03-03T07:49:49.585Z,49.10
2018-03-03T07:52:17.053Z,49.10
2018-03-03T07:54:44.130Z,49.10
2018-03-03T07:57:11.977Z,49.60
2018-03-03T07:59:39.073Z,49.10
2018-03-03T08:02:07.285Z,49.10
2018-03-03T08:04:35.501Z,49.00
2018-03-03T08:07:03.733Z,49.10
2018-03-03T08:09:31.209Z,49.10
2018-03-03T08:11:58.303Z,49.10
2018-03-03T08:14:25.379Z,49.10
2018-03-03T08:19:21.610Z,49.10
2018-03-03T08:21:49.839Z,49.00
2018-03-03T08:24:16.924Z,49.00
2018-03-03T08:26:44.015Z,49.00
2018-03-03T08:29:11.500Z,49.10
2018-03-03T08:31:39.347Z,49.20
2018-03-03T08:34:07.593Z,49.10
2018-03-03T08:36:35.810Z,49.10
2018-03-03T08:39:02.890Z,49.00
2018-03-03T08:41:30.734Z,49.70
2018-03-03T08:43:57.890Z,49.20
2018-03-03T08:46:25.734Z,49.10
2018-03-03T08:48:53.617Z,49.10
2018-03-03T08:51:21.878Z,49.20
2018-03-03T08:53:50.136Z,49.00
2018-03-03T08:56:17.216Z,49.10
2018-03-03T08:58:45.091Z,49.00
2018-03-03T09:01:13.324Z,49.00
2018-03-03T09:03:41.190Z,49.00
2018-03-03T09:06:09.043Z,49.10
2018-03-03T09:08:37.282Z,48.90
2018-03-03T09:11:04.380Z,48.90
2018-03-03T09:16:01.378Z,48.80
2018-03-03T09:18:29.270Z,48.80
2018-03-03T09:20:57.114Z,48.90
2018-03-03T09:23:24.194Z,48.90
2018-03-03T09:25:52.054Z,49.30
2018-03-03T09:28:19.130Z,48.90
2018-03-03T09:30:47.346Z,48.90
2018-03-03T09:33:14.836Z,48.80
2018-03-03T09:35:41.917Z,48.80
2018-03-03T09:38:09.020Z,48.80
2018-03-03T09:40:37.237Z,48.90
2018-03-03T09:43:05.115Z,48.80
2018-03-03T09:45:32.335Z,48.80
2018-03-03T09:47:59.443Z,48.80
2018-03-03T09:50:27.324Z,48.80
2018-03-03T09:52:55.228Z,48.80
2018-03-03T09:55:23.466Z,48.90
2018-03-03T09:57:51.337Z,48.90
2018-03-03T10:00:19.199Z,48.90
2018-03-03T10:02:47.476Z,48.90
2018-03-03T10:05:16.089Z,49.40
2018-03-03T10:07:44.170Z,49.40
2018-03-03T10:10:11.660Z,48.90
2018-03-03T10:12:39.927Z,48.90
2018-03-03T10:15:07.797Z,48.90
2018-03-03T10:17:34.882Z,48.90
2018-03-03T10:22:30.719Z,48.90
2018-03-03T10:24:59.339Z,48.90
2018-03-03T10:27:27.229Z,49.00
2018-03-03T10:32:23.085Z,48.90
2018-03-03T10:34:51.331Z,48.90
2018-03-03T10:37:19.193Z,48.90
2018-03-03T10:39:47.695Z,49.00
2018-03-03T10:42:15.178Z,49.00
2018-03-03T10:44:43.405Z,49.00
2018-03-03T10:47:11.268Z,49.00
2018-03-03T10:49:39.510Z,49.00
2018-03-03T10:52:07.462Z,49.00
2018-03-03T10:54:35.684Z,49.00
2018-03-03T10:57:02.757Z,48.90
2018-03-03T10:59:29.860Z,49.00
2018-03-03T11:01:57.352Z,49.00
2018-03-03T11:04:25.586Z,49.00
2018-03-03T11:06:54.175Z,49.50
2018-03-03T11:09:21.647Z,49.00
2018-03-03T11:11:49.863Z,49.00
2018-03-03T11:14:18.101Z,48.90
2018-03-03T11:16:46.313Z,49.00
2018-03-03T11:19:13.415Z,49.20
2018-03-03T11:21:41.258Z,49.30
2018-03-03T11:24:09.494Z,49.50
2018-03-03T11:26:37.352Z,49.60
2018-03-03T11:29:05.215Z,50.20
2018-03-03T11:31:32.307Z,49.80
2018-03-03T11:33:59.396Z,49.90
2018-03-03T11:36:27.256Z,50.00
2018-03-03T11:38:54.342Z,50.20
2018-03-03T11:41:22.195Z,50.10
2018-03-03T11:43:50.411Z,50.10
2018-03-03T11:46:18.335Z,50.10
2018-03-03T11:48:45.409Z,50.20
2018-03-03T11:51:13.257Z,50.20
2018-03-03T11:53:40.333Z,50.30
2018-03-03T11:56:08.192Z,50.30
2018-03-03T11:58:35.289Z,50.30
2018-03-03T12:03:31.502Z,50.40
2018-03-03T12:05:59.432Z,50.40
2018-03-03T12:08:28.035Z,50.50
2018-03-03T12:10:55.156Z,50.60
2018-03-03T12:13:22.647Z,50.60
2018-03-03T12:18:19.244Z,50.70
2018-03-03T12:20:47.453Z,50.70
2018-03-03T12:23:15.298Z,50.80
2018-03-03T12:25:43.523Z,50.80
2018-03-03T12:28:11.388Z,50.90
2018-03-03T12:30:39.615Z,51.00
2018-03-03T12:33:07.849Z,51.00
2018-03-03T12:35:36.076Z,51.00
2018-03-03T12:38:03.941Z,51.10
2018-03-03T12:40:32.159Z,51.00
2018-03-03T12:42:59.253Z,51.20
2018-03-03T12:45:27.481Z,51.30
2018-03-03T12:47:55.351Z,51.20
2018-03-03T12:50:22.443Z,47.30
2018-03-03T12:52:50.314Z,50.10
2018-03-03T12:55:18.154Z,50.50
2018-03-03T13:00:15.509Z,50.40
2018-03-03T13:02:44.133Z,50.40
2018-03-03T13:05:11.997Z,50.90
2018-03-03T13:07:39.483Z,50.30
2018-03-03T13:10:07.325Z,50.40
2018-03-03T13:12:35.975Z,50.40
2018-03-03T13:15:04.094Z,50.50
2018-03-03T13:17:31.957Z,50.30
2018-03-03T13:19:59.039Z,50.40
2018-03-03T13:22:26.136Z,50.40
2018-03-03T13:24:53.628Z,50.40
2018-03-03T13:27:21.488Z,50.40
2018-03-03T13:29:49.705Z,50.50
2018-03-03T13:32:17.932Z,50.50
2018-03-03T13:34:46.151Z,50.50
2018-03-03T13:37:14.362Z,50.40
2018-03-03T13:39:41.461Z,50.30
2018-03-03T13:42:09.306Z,50.20
2018-03-03T13:44:36.386Z,50.30
2018-03-03T13:47:03.480Z,50.30
2018-03-03T13:49:30.558Z,50.30
2018-03-03T13:51:57.636Z,50.30
2018-03-03T13:54:25.500Z,50.30
2018-03-03T13:56:53.733Z,50.20
2018-03-03T13:59:20.810Z,50.20
2018-03-03T14:01:47.894Z,50.20
2018-03-03T14:04:16.482Z,50.80
2018-03-03T14:06:43.581Z,50.30
2018-03-03T14:09:11.425Z,50.30
2018-03-03T14:11:38.502Z,50.20
2018-03-03T14:14:06.351Z,50.70
2018-03-03T14:16:33.443Z,50.30
2018-03-03T14:19:01.293Z,50.20
2018-03-03T14:21:31.373Z,50.30
2018-03-03T14:23:59.699Z,50.30
2018-03-03T14:26:27.540Z,50.40
2018-03-03T14:28:55.754Z,50.30
2018-03-03T14:31:23.914Z,50.30
2018-03-03T14:33:51.434Z,50.30
2018-03-03T14:36:18.522Z,50.40
2018-03-03T14:38:45.612Z,50.40
2018-03-03T14:41:13.474Z,50.40
2018-03-03T14:43:41.694Z,50.40
2018-03-03T14:46:09.560Z,50.40
2018-03-03T14:51:05.520Z,50.30
2018-03-03T14:53:34.136Z,50.40
2018-03-03T14:56:02.350Z,50.90
2018-03-03T14:58:29.454Z,50.30
2018-03-03T15:00:58.055Z,50.40
2018-03-03T15:03:25.664Z,50.40
2018-03-03T15:05:53.877Z,50.40
2018-03-03T15:08:22.495Z,50.90
2018-03-03T15:10:49.984Z,50.40
2018-03-03T15:13:17.149Z,50.40
2018-03-03T15:15:44.257Z,50.40
2018-03-03T15:18:11.923Z,50.50
2018-03-03T15:20:40.808Z,50.90
2018-03-03T15:23:07.906Z,50.40
2018-03-03T15:25:36.121Z,50.40
2018-03-03T15:28:04.690Z,50.50
2018-03-03T15:33:00.541Z,50.40
2018-03-03T15:35:28.313Z,50.40
2018-03-03T15:40:26.588Z,50.40
2018-03-03T15:42:54.403Z,50.50
2018-03-03T15:45:23.005Z,51.00
2018-03-03T15:47:52.377Z,50.50
2018-03-03T15:50:20.195Z,50.60
2018-03-03T15:52:49.160Z,50.60
2018-03-03T15:55:17.894Z,50.50
2018-03-03T16:00:16.221Z,50.60
2018-03-03T16:02:45.568Z,50.60
2018-03-03T16:05:14.030Z,50.60
2018-03-03T16:07:42.098Z,50.70
2018-03-03T16:10:11.017Z,50.70
2018-03-03T16:15:07.754Z,50.60
2018-03-03T16:17:36.760Z,50.60
2018-03-03T16:20:04.642Z,50.60
2018-03-03T16:22:32.213Z,50.60
2018-03-03T16:25:00.189Z,50.60
2018-03-03T16:29:57.023Z,50.60
2018-03-03T16:32:26.498Z,50.60
2018-03-03T16:34:54.477Z,50.50
2018-03-03T16:37:22.869Z,50.60
2018-03-03T16:39:50.337Z,50.50
2018-03-03T16:42:17.911Z,50.60
2018-03-03T16:44:46.303Z,50.60
2018-03-03T16:47:13.669Z,50.60
2018-03-03T16:49:41.541Z,50.70
2018-03-03T16:52:09.771Z,50.60
2018-03-03T16:54:37.628Z,50.60
2018-03-03T16:59:33.452Z,50.60
2018-03-03T17:02:00.925Z,50.60
2018-03-03T17:04:28.119Z,50.70
2018-03-03T17:06:55.231Z,50.60
2018-03-03T17:09:22.427Z,50.60
2018-03-03T17:11:50.675Z,50.60
2018-03-03T17:14:17.875Z,50.70
2018-03-03T17:16:45.412Z,50.70
2018-03-03T17:19:12.499Z,50.60
2018-03-03T17:21:40.412Z,50.70
2018-03-03T17:24:07.581Z,50.70
2018-03-03T17:26:34.674Z,50.70
2018-03-03T17:29:01.772Z,50.70
2018-03-03T17:31:29.982Z,50.70
2018-03-03T17:33:58.198Z,50.70
2018-03-03T17:36:26.433Z,50.70
2018-03-03T17:38:53.510Z,50.70
2018-03-03T17:41:21.477Z,51.30
2018-03-03T17:43:49.897Z,50.70
2018-03-03T17:46:17.756Z,50.70
2018-03-03T17:48:46.175Z,50.70
2018-03-03T17:51:13.711Z,50.70
2018-03-03T17:53:40.868Z,50.70
2018-03-03T17:58:37.804Z,50.70
2018-03-03T18:01:05.774Z,50.70
2018-03-03T18:03:33.675Z,50.70
2018-03-03T18:06:01.903Z,50.70
2018-03-03T18:08:30.520Z,51.20
2018-03-03T18:13:26.395Z,50.70
2018-03-03T18:15:54.238Z,50.70
2018-03-03T18:18:21.742Z,50.80
2018-03-03T18:23:17.754Z,50.60
2018-03-03T18:28:14.811Z,50.60
2018-03-03T18:30:42.042Z,50.60
2018-03-03T18:33:09.918Z,51.10
2018-03-03T18:35:37.934Z,50.60
2018-03-03T18:38:05.374Z,50.60
2018-03-03T18:43:02.919Z,50.60
2018-03-03T18:45:30.363Z,50.60
2018-03-03T18:47:58.344Z,50.60
2018-03-03T18:50:27.046Z,50.60
2018-03-03T18:52:54.203Z,50.60
2018-03-03T18:55:22.060Z,50.60
2018-03-03T18:57:50.327Z,50.60
2018-03-03T19:00:17.458Z,50.60
2018-03-03T19:02:44.707Z,50.70
2018-03-03T19:05:11.859Z,50.60
2018-03-03T19:07:39.238Z,50.60
2018-03-03T19:10:06.517Z,50.60
2018-03-03T19:17:32.935Z,50.60
2018-03-03T19:20:01.086Z,50.70
2018-03-03T19:24:58.894Z,50.60
2018-03-03T19:27:26.467Z,50.60
2018-03-03T19:29:54.169Z,50.70
2018-03-03T19:32:22.702Z,51.20
2018-03-03T19:34:49.941Z,50.10
2018-03-03T19:37:17.986Z,50.30
2018-03-03T19:39:46.478Z,50.50
2018-03-03T19:42:14.564Z,50.50
2018-03-03T19:44:42.495Z,50.60
2018-03-03T19:52:07.685Z,50.60
2018-03-03T19:59:32.547Z,50.60
2018-03-03T20:01:59.790Z,50.60
2018-03-03T20:06:55.900Z,50.60
2018-03-03T20:09:24.764Z,50.60
2018-03-03T20:11:52.823Z,50.60
2018-03-03T20:14:20.682Z,50.60
2018-03-03T20:16:47.917Z,50.60
2018-03-03T20:19:15.827Z,50.60
2018-03-03T20:21:44.009Z,50.60
2018-03-03T20:24:13.636Z,50.60
2018-03-03T20:29:10.820Z,50.60
2018-03-03T20:31:38.356Z,50.60
2018-03-03T20:34:06.522Z,50.70
2018-03-03T20:36:34.677Z,50.70
2018-03-03T20:39:02.866Z,50.80
2018-03-03T20:41:30.066Z,50.80
2018-03-03T20:43:57.591Z,50.80
2018-03-03T20:46:24.967Z,50.70
2018-03-03T20:48:52.643Z,50.80
2018-03-03T20:51:20.580Z,50.80
2018-03-03T20:56:16.960Z,50.70
2018-03-03T20:58:44.864Z,50.60
2018-03-03T21:03:42.158Z,50.60
2018-03-03T21:06:10.603Z,50.60
2018-03-03T21:08:37.919Z,50.70
2018-03-03T21:11:07.742Z,50.60
2018-03-03T21:13:35.727Z,50.70
2018-03-03T21:16:03.687Z,50.60
2018-03-03T21:18:33.144Z,50.60
2018-03-03T21:21:01.207Z,50.70
2018-03-03T21:25:59.284Z,50.70
2018-03-03T21:28:26.536Z,50.70
2018-03-03T21:30:54.570Z,50.70
2018-03-03T21:33:22.167Z,50.70
2018-03-03T21:35:51.148Z,50.70
2018-03-03T21:38:18.822Z,50.70
2018-03-03T21:40:46.136Z,50.70
2018-03-03T21:43:14.172Z,50.70
2018-03-03T21:45:42.460Z,50.70
2018-03-03T21:48:10.292Z,50.70
2018-03-03T21:50:38.589Z,50.70
2018-03-03T21:53:06.611Z,50.70
2018-03-03T21:55:34.800Z,50.70
2018-03-03T21:58:02.577Z,49.70
2018-03-03T22:02:58.743Z,50.10
2018-03-03T22:22:27.011Z,50.80
2018-03-03T22:24:54.924Z,50.80
2018-03-03T22:27:22.766Z,51.20
2018-03-03T22:44:24.612Z,50.70
2018-03-03T22:46:52.096Z,50.60
